KPSM/PSM METAR and TAF weather

Enter ICAO airport designator
Station Type Date Time Source
KPSM METAR 2022/01/26 12:56 UTC NOAA

KPSM 261256Z 28008KT 10SM FEW250 M09/M17 A3024 RMK AO2A SLP244 T10881167


Station Type Date Time Source
KPSM Decoded METAR 2022/01/26 12:56 UTC NOAA

Pease Air Force Base / Portsmouth, NH, United States (KPSM) 43-05N 070-49W
Jan 26, 2022 - 07:56 AM EST / 2022.01.26 1256 UTC
Wind: from the W (280 degrees) at 9 MPH (8 KT):0
Visibility: 10 mile(s):0
Sky conditions: mostly clear
Temperature: 16.2 F (-8.8 C)
Windchill: 5 F (-15 C):1
Dew Point: 1.9 F (-16.7 C)
Relative Humidity: 52%
Pressure (altimeter): 30.24 in. Hg (1024 hPa)
ob: KPSM 261256Z 28008KT 10SM FEW250 M09/M17 A3024 RMK AO2A SLP244 T10881167
cycle: 13

Station Type Date Time Source
KPSM TAF 2022/01/26 12:22 UTC NOAA

TAF KPSM 261120Z 2612/2712 29005KT P6SM SKC
FM262100 32006KT P6SM FEW250

Example: see airport list